createdAt,value
2019-03-06T00:01:31.811Z,100471.36
2019-03-06T00:04:00.203Z,100475.52
2019-03-06T00:06:32.289Z,100468.86
2019-03-06T00:09:13.124Z,100465.08
2019-03-06T00:11:49.420Z,100449.13
2019-03-06T00:14:17.939Z,100455.23
2019-03-06T00:16:46.478Z,100456.42
2019-03-06T00:19:15.247Z,100445.20
2019-03-06T00:21:43.757Z,100447.37
2019-03-06T00:24:13.319Z,100444.13
2019-03-06T00:26:59.105Z,100437.89
2019-03-06T00:29:52.221Z,100437.66
2019-03-06T00:32:16.737Z,100443.69
2019-03-06T00:34:45.227Z,100434.33
2019-03-06T00:37:13.955Z,100433.55
2019-03-06T00:40:01.304Z,100427.26
2019-03-06T00:42:33.769Z,100427.20
2019-03-06T00:45:51.256Z,100430.54
2019-03-06T00:47:34.487Z,100422.98
2019-03-06T00:50:03.112Z,100421.88
2019-03-06T00:52:32.667Z,100426.54
2019-03-06T00:55:01.859Z,100419.91
2019-03-06T00:57:30.641Z,100413.75
2019-03-06T01:00:04.455Z,100407.39
2019-03-06T01:02:32.011Z,100406.35
2019-03-06T01:05:01.567Z,100405.02
2019-03-06T01:07:33.010Z,100364.66
2019-03-06T01:10:03.043Z,100404.31
2019-03-06T01:12:31.565Z,100403.53
2019-03-06T01:14:59.983Z,100403.53
2019-03-06T01:17:29.964Z,100401.53
2019-03-06T01:19:58.498Z,100405.58
2019-03-06T01:22:27.013Z,100410.97
2019-03-06T01:24:55.467Z,100407.27
2019-03-06T01:27:25.535Z,100404.00
2019-03-06T01:29:54.270Z,100396.93
2019-03-06T01:32:24.060Z,100393.27
2019-03-06T01:35:17.593Z,100381.47
2019-03-06T01:38:04.222Z,100382.70
2019-03-06T01:40:41.495Z,100375.44
2019-03-06T01:43:29.445Z,100368.85
2019-03-06T01:45:58.180Z,100361.11
2019-03-06T01:48:34.260Z,100357.25
2019-03-06T01:51:07.615Z,100356.47
2019-03-06T01:53:37.002Z,100359.68
2019-03-06T01:56:07.156Z,100357.25
2019-03-06T01:58:37.560Z,100356.24
2019-03-06T02:01:10.788Z,100352.97
2019-03-06T02:03:45.364Z,100340.59
2019-03-06T02:06:14.033Z,100340.04
2019-03-06T02:08:42.602Z,100330.34
2019-03-06T02:11:16.663Z,100330.80
2019-03-06T02:13:45.512Z,100327.17
2019-03-06T02:16:14.210Z,100331.22
2019-03-06T02:18:43.220Z,100329.27
2019-03-06T02:21:13.222Z,100330.58
2019-03-06T02:23:41.675Z,100328.28
2019-03-06T02:26:12.270Z,100312.40
2019-03-06T02:28:43.749Z,100307.20
2019-03-06T02:31:14.759Z,100301.82
2019-03-06T02:33:45.916Z,100286.67
2019-03-06T02:36:15.184Z,100287.49
2019-03-06T02:38:44.332Z,100280.27
2019-03-06T02:41:13.860Z,100285.67
2019-03-06T02:43:43.374Z,100280.28
2019-03-06T02:46:14.708Z,100282.31
2019-03-06T02:48:43.240Z,100278.81
2019-03-06T02:51:11.595Z,100274.55
2019-03-06T02:53:40.137Z,100272.20
2019-03-06T02:56:10.947Z,100278.69
2019-03-06T02:59:20.018Z,100272.16
2019-03-06T03:01:59.935Z,100264.48
2019-03-06T03:04:39.484Z,100260.86
2019-03-06T03:07:14.417Z,100257.09
2019-03-06T03:09:43.254Z,100245.73
2019-03-06T03:12:11.680Z,100246.00
2019-03-06T03:14:40.139Z,100239.10
2019-03-06T03:17:08.527Z,100235.88
2019-03-06T03:19:37.081Z,100233.91
2019-03-06T03:22:08.079Z,100240.22
2019-03-06T03:24:37.337Z,100220.42
2019-03-06T03:27:13.756Z,100224.95
2019-03-06T03:29:44.009Z,100221.19
2019-03-06T03:32:12.913Z,100225.52
2019-03-06T03:34:43.252Z,100222.08
2019-03-06T03:37:12.411Z,100225.17
2019-03-06T03:39:44.769Z,100232.98
2019-03-06T03:42:14.888Z,100225.83
2019-03-06T03:44:47.094Z,100238.33
2019-03-06T03:47:16.178Z,100230.80
2019-03-06T03:49:44.753Z,100218.95
2019-03-06T03:52:16.513Z,100213.99
2019-03-06T03:54:44.952Z,100212.00
2019-03-06T03:57:13.636Z,100204.73
2019-03-06T03:59:42.415Z,100193.34
2019-03-06T04:02:14.936Z,100199.85
2019-03-06T04:04:45.739Z,100196.63
2019-03-06T04:07:14.199Z,100188.41
2019-03-06T04:09:45.688Z,100186.50
2019-03-06T04:12:14.219Z,100178.01
2019-03-06T04:14:42.636Z,100170.73
2019-03-06T04:17:11.140Z,100168.47
2019-03-06T04:19:39.931Z,100162.73
2019-03-06T04:22:14.783Z,100162.11
2019-03-06T04:24:46.539Z,100158.52
2019-03-06T04:27:14.993Z,100162.72
2019-03-06T04:29:44.032Z,100178.47
2019-03-06T04:32:12.838Z,100181.67
2019-03-06T04:34:43.095Z,100187.03
2019-03-06T04:37:14.225Z,100174.05
2019-03-06T04:39:43.449Z,100164.44
2019-03-06T04:42:11.781Z,100151.92
2019-03-06T04:44:40.264Z,100161.02
2019-03-06T04:47:09.000Z,100157.03
2019-03-06T04:49:37.790Z,100149.96
2019-03-06T04:52:12.203Z,100144.95
2019-03-06T04:54:40.632Z,100141.06
2019-03-06T04:57:09.247Z,100143.95
2019-03-06T04:59:38.673Z,100126.94
2019-03-06T05:02:07.266Z,100123.91
2019-03-06T05:04:38.820Z,100112.81
2019-03-06T05:07:07.683Z,100113.30
2019-03-06T05:09:36.258Z,100120.50
2019-03-06T05:12:05.328Z,100113.11
2019-03-06T05:14:34.785Z,100105.11
2019-03-06T05:17:34.145Z,100101.02
2019-03-06T05:20:05.959Z,100102.92
2019-03-06T05:22:34.660Z,100111.47
2019-03-06T05:25:03.124Z,100116.06
2019-03-06T05:27:31.631Z,100105.50
2019-03-06T05:30:04.119Z,100105.75
2019-03-06T05:32:32.686Z,100091.52
2019-03-06T05:35:02.797Z,100086.48
2019-03-06T05:38:00.464Z,100078.52
2019-03-06T05:40:29.449Z,100070.91
2019-03-06T05:42:58.901Z,100063.72
2019-03-06T05:45:31.480Z,100065.83
2019-03-06T05:48:03.249Z,100065.27
2019-03-06T05:50:38.044Z,99999.55
2019-03-06T05:53:08.634Z,100035.95
2019-03-06T05:55:37.982Z,100036.16
2019-03-06T05:58:10.477Z,100032.55
2019-03-06T06:00:51.313Z,100030.44
2019-03-06T06:03:22.780Z,100023.90
2019-03-06T06:05:51.779Z,100023.27
2019-03-06T06:08:21.674Z,100014.09
2019-03-06T06:10:52.084Z,100014.94
2019-03-06T06:13:23.314Z,100007.55
2019-03-06T06:15:52.639Z,100004.02
2019-03-06T06:18:24.233Z,100000.66
2019-03-06T06:21:09.034Z,100010.00
2019-03-06T06:23:48.726Z,100007.20
2019-03-06T06:26:17.614Z,100008.06
2019-03-06T06:28:46.169Z,100001.64
2019-03-06T06:31:19.716Z,99998.52
2019-03-06T06:33:55.692Z,99994.69
2019-03-06T06:36:29.583Z,99990.50
2019-03-06T06:38:59.486Z,99985.70
2019-03-06T06:42:39.808Z,99978.87
2019-03-06T06:45:27.320Z,99968.14
2019-03-06T06:48:22.552Z,99966.84
2019-03-06T06:51:20.431Z,99966.09
2019-03-06T06:54:13.156Z,99965.46
2019-03-06T06:57:00.665Z,99955.06
2019-03-06T06:59:50.059Z,99950.58
2019-03-06T07:03:22.199Z,99943.36
2019-03-06T07:06:01.500Z,99946.34
2019-03-06T07:08:57.547Z,99951.66
2019-03-06T07:11:44.222Z,99936.11
2019-03-06T07:14:45.178Z,99924.98
2019-03-06T07:17:45.470Z,99916.70
2019-03-06T07:20:40.241Z,99908.98
2019-03-06T07:23:22.557Z,99907.30
2019-03-06T07:26:23.544Z,99908.52
2019-03-06T07:29:31.449Z,99892.04
2019-03-06T07:32:46.728Z,99892.04
2019-03-06T07:35:50.023Z,99887.27
2019-03-06T07:38:19.912Z,99887.10
2019-03-06T07:41:09.176Z,99879.11
2019-03-06T07:44:10.011Z,99889.84
2019-03-06T07:47:08.292Z,99889.41
2019-03-06T07:49:46.163Z,99896.23
2019-03-06T07:52:22.734Z,99883.52
2019-03-06T07:55:00.424Z,99888.84
2019-03-06T07:57:51.156Z,99884.27
2019-03-06T08:00:20.771Z,99879.17
2019-03-06T08:02:57.078Z,99871.30
2019-03-06T08:05:25.839Z,99871.30
2019-03-06T08:08:00.305Z,99871.50
2019-03-06T08:10:40.519Z,99874.17
2019-03-06T08:13:23.918Z,99875.36
2019-03-06T08:16:15.466Z,99870.72
2019-03-06T08:19:16.786Z,99865.03
2019-03-06T08:22:15.886Z,99863.28
2019-03-06T08:25:08.324Z,99864.27
2019-03-06T08:27:43.814Z,99855.95
2019-03-06T08:30:31.172Z,99844.62
2019-03-06T08:33:18.679Z,99852.61
2019-03-06T08:35:52.209Z,99840.25
2019-03-06T08:38:20.993Z,99840.25
2019-03-06T08:40:51.210Z,99841.03
2019-03-06T08:43:21.982Z,99839.70
2019-03-06T08:46:20.765Z,99836.34
2019-03-06T08:49:44.317Z,99842.21
2019-03-06T08:52:30.931Z,99831.88
2019-03-06T08:55:43.608Z,99562.92
2019-03-06T08:58:37.218Z,99828.23
2019-03-06T09:02:15.603Z,99823.94
2019-03-06T09:05:07.828Z,99819.00
2019-03-06T09:07:56.186Z,99808.19
2019-03-06T09:10:48.275Z,99792.27
2019-03-06T09:13:30.723Z,99791.14
2019-03-06T09:16:25.615Z,99784.76
2019-03-06T09:19:29.282Z,99786.91
2019-03-06T09:22:42.118Z,99776.66
2019-03-06T09:25:34.879Z,99777.99
2019-03-06T09:28:15.829Z,99770.09
2019-03-06T09:31:02.984Z,99764.33
2019-03-06T09:34:10.496Z,99748.27
2019-03-06T09:36:47.004Z,99752.29
2019-03-06T09:39:35.883Z,99724.56
2019-03-06T09:42:39.200Z,99731.84
2019-03-06T09:45:19.613Z,99723.17
2019-03-06T09:48:16.853Z,99719.64
2019-03-06T09:51:00.261Z,99719.38
2019-03-06T09:53:50.031Z,99719.02
2019-03-06T09:56:30.938Z,99723.00
2019-03-06T09:59:22.338Z,99728.92
2019-03-06T10:02:13.743Z,99721.15
2019-03-06T10:05:07.864Z,99721.65
2019-03-06T10:07:53.744Z,99721.92
2019-03-06T10:10:57.591Z,99714.03
2019-03-06T10:13:42.168Z,99714.03
2019-03-06T10:16:31.389Z,99709.51
2019-03-06T10:19:29.642Z,99699.57
2019-03-06T10:21:59.181Z,99690.00
2019-03-06T10:24:28.540Z,99690.00
2019-03-06T10:26:57.276Z,99714.44
2019-03-06T10:29:28.563Z,99655.00
2019-03-06T10:32:15.679Z,99693.39
2019-03-06T10:34:55.998Z,99693.39
2019-03-06T10:37:26.966Z,99691.39
2019-03-06T10:39:59.712Z,99691.44
2019-03-06T10:42:40.735Z,99693.57
2019-03-06T10:45:14.827Z,99673.41
2019-03-06T10:47:49.471Z,99690.05
2019-03-06T10:50:27.366Z,99682.77
2019-03-06T10:52:55.520Z,99682.94
2019-03-06T10:55:24.268Z,99674.17
2019-03-06T10:57:56.388Z,99667.86
2019-03-06T11:00:25.843Z,99671.42
2019-03-06T11:03:01.309Z,99662.38
2019-03-06T11:05:40.761Z,99659.08
2019-03-06T11:08:31.414Z,99651.75
2019-03-06T11:11:00.558Z,99647.18
2019-03-06T11:13:33.731Z,99641.61
2019-03-06T11:33:55.069Z,99615.93
2019-03-06T11:42:39.265Z,99606.59
2019-03-06T11:45:30.565Z,99596.63
2019-03-06T11:48:10.979Z,99580.47
2019-03-06T11:57:11.724Z,99575.02
2019-03-06T11:59:47.889Z,99560.77
2019-03-06T12:02:41.707Z,99551.06
2019-03-06T12:14:13.333Z,99542.16
2019-03-06T12:16:52.625Z,99532.98
2019-03-06T12:29:05.537Z,99500.08
2019-03-06T12:32:01.677Z,99493.62
2019-03-06T12:38:10.751Z,99484.98
2019-03-06T12:47:07.035Z,99466.82
2019-03-06T12:49:35.707Z,99454.48
2019-03-06T12:52:08.749Z,99445.66
2019-03-06T12:54:45.299Z,99445.66
2019-03-06T12:57:09.870Z,99459.98
2019-03-06T13:03:12.446Z,99454.98
2019-03-06T13:12:08.799Z,99421.23
2019-03-06T13:20:18.470Z,99404.91
2019-03-06T13:25:57.302Z,99388.66
2019-03-06T13:28:25.707Z,99389.64
2019-03-06T13:31:24.730Z,99382.46
2019-03-06T13:37:17.390Z,99379.39
2019-03-06T13:40:03.314Z,99378.14
2019-03-06T13:43:05.405Z,99378.14
2019-03-06T13:45:45.594Z,99379.95
2019-03-06T13:48:17.248Z,99391.46
2019-03-06T13:50:48.065Z,99386.78
2019-03-06T13:53:20.364Z,99381.71
2019-03-06T14:01:07.837Z,99382.03
2019-03-06T14:04:44.413Z,99398.73
2019-03-06T14:07:08.751Z,99377.17
2019-03-06T14:10:15.746Z,99389.28
2019-03-06T14:15:54.269Z,99401.58
2019-03-06T14:18:50.335Z,99402.97
2019-03-06T14:24:26.116Z,99388.64
2019-03-06T14:27:26.190Z,99398.65
2019-03-06T14:44:47.260Z,99397.63
2019-03-06T14:49:52.541Z,99377.45
2019-03-06T14:57:58.587Z,99369.63
2019-03-06T15:10:42.670Z,99345.22
2019-03-06T15:15:00.683Z,99329.16
2019-03-06T15:17:40.144Z,99332.42
2019-03-06T15:29:11.934Z,99316.36
2019-03-06T15:31:59.508Z,99311.53
2019-03-06T15:34:37.786Z,99295.53
2019-03-06T15:40:31.123Z,99307.39
2019-03-06T15:43:02.072Z,99306.74
2019-03-06T15:45:55.150Z,99306.66
2019-03-06T15:56:14.805Z,99272.41
2019-03-06T16:05:22.271Z,99258.34
2019-03-06T16:07:52.964Z,99254.84
2019-03-06T16:13:31.510Z,99258.45
2019-03-06T16:19:27.712Z,99260.00
2019-03-06T16:22:07.092Z,99256.09
2019-03-06T16:27:34.191Z,99256.36
2019-03-06T16:36:08.394Z,99248.55
2019-03-06T16:39:07.946Z,99233.36
2019-03-06T16:41:58.766Z,99236.45
2019-03-06T16:49:48.922Z,99222.94
2019-03-06T16:52:50.110Z,99234.23
2019-03-06T16:58:36.197Z,99166.70
2019-03-06T17:01:53.584Z,99198.02
2019-03-06T17:04:24.178Z,99230.46
2019-03-06T17:06:58.878Z,99225.03
2019-03-06T17:09:33.134Z,99224.59
2019-03-06T17:12:05.309Z,99221.51
2019-03-06T17:14:41.611Z,99230.24
2019-03-06T17:17:29.054Z,99226.78
2019-03-06T17:32:29.635Z,99234.25
2019-03-06T17:43:59.859Z,99220.48
2019-03-06T17:49:35.063Z,99215.98
2019-03-06T17:52:05.196Z,99208.52
2019-03-06T17:54:33.614Z,99213.48
2019-03-06T17:57:02.073Z,99221.72
2019-03-06T18:09:12.792Z,99200.32
2019-03-06T18:12:05.821Z,99211.30
2019-03-06T18:14:54.396Z,99197.45
2019-03-06T18:17:28.423Z,99202.89
2019-03-06T18:20:19.096Z,99193.50
2019-03-06T18:23:07.809Z,99195.16
2019-03-06T18:25:41.471Z,99196.50
2019-03-06T18:28:13.020Z,99191.59
2019-03-06T18:30:43.586Z,99193.08
2019-03-06T18:33:20.345Z,99188.09
2019-03-06T18:35:56.348Z,99185.92
2019-03-06T18:38:33.264Z,99178.56
2019-03-06T18:41:07.861Z,99184.55
2019-03-06T18:43:39.759Z,99192.25
2019-03-06T18:46:10.670Z,99189.75
2019-03-06T18:48:50.037Z,99189.16
2019-03-06T18:51:24.816Z,99187.84
2019-03-06T18:53:53.267Z,99189.50
2019-03-06T18:56:23.929Z,99178.99
2019-03-06T18:58:54.122Z,99179.57
2019-03-06T19:01:25.943Z,99174.37
2019-03-06T19:03:56.748Z,99172.20
2019-03-06T19:06:28.415Z,99164.02
2019-03-06T19:08:57.242Z,99146.56
2019-03-06T19:11:33.366Z,99143.11
2019-03-06T19:14:03.085Z,99148.37
2019-03-06T19:16:38.604Z,99127.78
2019-03-06T19:19:07.980Z,99066.77
2019-03-06T19:21:36.424Z,99137.46
2019-03-06T19:24:19.823Z,99131.58
2019-03-06T19:26:48.231Z,99134.66
2019-03-06T19:29:19.382Z,99126.25
2019-03-06T19:31:48.324Z,99125.80
2019-03-06T19:34:19.216Z,99129.94
2019-03-06T19:36:51.443Z,99129.94
2019-03-06T19:39:29.324Z,99128.85
2019-03-06T19:42:03.153Z,99124.75
2019-03-06T19:44:44.193Z,99125.00
2019-03-06T19:47:19.090Z,99122.92
2019-03-06T19:49:49.973Z,99127.20
2019-03-06T19:52:27.698Z,99109.52
2019-03-06T19:55:00.959Z,99120.17
2019-03-06T19:57:30.200Z,99127.59
2019-03-06T20:00:09.734Z,99114.30
2019-03-06T20:02:42.259Z,99121.61
2019-03-06T20:05:15.332Z,99121.61
2019-03-06T20:07:47.108Z,99114.61
2019-03-06T20:10:20.411Z,99111.25
2019-03-06T20:12:50.811Z,99118.63
2019-03-06T20:15:27.087Z,99113.16
2019-03-06T20:17:57.809Z,99104.23
2019-03-06T20:20:26.195Z,99107.47
2019-03-06T20:23:02.717Z,99109.66
2019-03-06T20:25:34.496Z,99108.19
2019-03-06T20:28:05.214Z,99097.67
2019-03-06T20:30:37.114Z,99099.59
2019-03-06T20:33:08.499Z,99101.67
2019-03-06T20:35:45.782Z,99099.27
2019-03-06T20:38:14.670Z,99087.13
2019-03-06T20:40:46.267Z,99095.00
2019-03-06T20:43:14.795Z,99088.44
2019-03-06T20:45:49.554Z,99094.02
2019-03-06T20:48:18.020Z,99098.59
2019-03-06T20:50:51.048Z,99090.53
2019-03-06T20:53:23.231Z,99093.78
2019-03-06T20:56:06.814Z,99095.62
2019-03-06T20:58:36.058Z,99097.81
2019-03-06T21:01:05.747Z,99097.83
2019-03-06T21:07:38.259Z,99093.88
2019-03-06T21:11:47.106Z,99094.72
2019-03-06T21:16:58.369Z,99084.58
2019-03-06T21:22:53.650Z,99078.23
2019-03-06T21:35:15.124Z,99058.75
2019-03-06T21:41:17.772Z,99054.69
2019-03-06T21:44:06.928Z,99051.88
2019-03-06T21:46:41.952Z,99049.76
2019-03-06T21:49:29.290Z,99045.75
2019-03-06T21:52:28.272Z,99051.66
2019-03-06T21:58:15.543Z,99043.58
2019-03-06T22:04:02.047Z,99037.95
2019-03-06T22:09:47.218Z,99034.54
2019-03-06T22:30:07.246Z,99010.98
2019-03-06T22:32:40.757Z,99012.73
2019-03-06T22:35:42.442Z,99003.84
2019-03-06T22:50:41.356Z,98976.18
2019-03-06T22:53:22.034Z,98981.72
2019-03-06T22:56:01.121Z,98977.33
2019-03-06T23:01:36.765Z,98962.58
2019-03-06T23:04:06.936Z,98959.59
2019-03-06T23:06:38.780Z,98954.43
2019-03-06T23:09:19.736Z,98945.91
2019-03-06T23:11:41.294Z,98944.00
2019-03-06T23:14:13.288Z,98938.94
